sensor_id;sensor_type;location;lat;lon;timestamp;temperature;humidity
6536;DHT22;34330;52.08032700;5.40923460;2023-12-28T00:01:17;13.00;95.50
6536;DHT22;34330;52.08032700;5.40923460;2023-12-28T00:03:45;13.00;95.70
6536;DHT22;34330;52.08032700;5.40923460;2023-12-28T00:06:15;13.00;95.70
6536;DHT22;34330;52.08032700;5.40923460;2023-12-28T00:08:43;13.10;95.80
6536;DHT22;34330;52.08032700;5.40923460;2023-12-28T00:11:22;13.10;95.80
6536;DHT22;34330;52.08032700;5.40923460;2023-12-28T00:13:50;13.10;95.80
6536;DHT22;34330;52.08032700;5.40923460;2023-12-28T00:16:18;13.20;95.90
6536;DHT22;34330;52.08032700;5.40923460;2023-12-28T00:18:46;13.20;95.90
6536;DHT22;34330;52.08032700;5.40923460;2023-12-28T00:21:15;13.20;95.80
6536;DHT22;34330;52.08032700;5.40923460;2023-12-28T00:23:43;13.20;95.80
6536;DHT22;34330;52.08032700;5.40923460;2023-12-28T00:26:11;13.30;95.90
6536;DHT22;34330;52.08032700;5.40923460;2023-12-28T00:28:39;13.30;95.80
6536;DHT22;34330;52.08032700;5.40923460;2023-12-28T00:31:09;13.30;95.80
6536;DHT22;34330;52.08032700;5.40923460;2023-12-28T00:33:37;13.30;95.90
6536;DHT22;34330;52.08032700;5.40923460;2023-12-28T00:36:05;13.30;95.80
6536;DHT22;34330;52.08032700;5.40923460;2023-12-28T00:38:34;13.40;95.80
6536;DHT22;34330;52.08032700;5.40923460;2023-12-28T00:41:02;13.40;95.80
6536;DHT22;34330;52.08032700;5.40923460;2023-12-28T00:43:31;13.40;95.80
6536;DHT22;34330;52.08032700;5.40923460;2023-12-28T00:45:58;13.40;95.80
6536;DHT22;34330;52.08032700;5.40923460;2023-12-28T00:48:26;13.40;95.70
6536;DHT22;34330;52.08032700;5.40923460;2023-12-28T00:50:55;15.40;96.60
6536;DHT22;34330;52.08032700;5.40923460;2023-12-28T00:53:25;13.40;95.70
6536;DHT22;34330;52.08032700;5.40923460;2023-12-28T00:55:54;13.40;95.70
6536;DHT22;34330;52.08032700;5.40923460;2023-12-28T00:58:22;13.00;95.40
6536;DHT22;34330;52.08032700;5.40923460;2023-12-28T01:00:50;13.40;95.70
6536;DHT22;34330;52.08032700;5.40923460;2023-12-28T01:03:20;13.40;95.60
6536;DHT22;34330;52.08032700;5.40923460;2023-12-28T01:05:48;13.40;95.60
6536;DHT22;34330;52.08032700;5.40923460;2023-12-28T01:08:19;13.40;95.70
6536;DHT22;34330;52.08032700;5.40923460;2023-12-28T01:10:47;13.40;95.60
6536;DHT22;34330;52.08032700;5.40923460;2023-12-28T01:13:16;13.40;95.50
6536;DHT22;34330;52.08032700;5.40923460;2023-12-28T01:15:45;13.50;95.60
6536;DHT22;34330;52.08032700;5.40923460;2023-12-28T01:18:13;13.40;95.80
6536;DHT22;34330;52.08032700;5.40923460;2023-12-28T01:20:41;13.40;95.50
6536;DHT22;34330;52.08032700;5.40923460;2023-12-28T01:23:09;13.30;95.50
6536;DHT22;34330;52.08032700;5.40923460;2023-12-28T01:25:37;13.30;95.80
6536;DHT22;34330;52.08032700;5.40923460;2023-12-28T01:28:05;13.30;95.50
6536;DHT22;34330;52.08032700;5.40923460;2023-12-28T01:30:35;13.30;95.50
6536;DHT22;34330;52.08032700;5.40923460;2023-12-28T01:33:03;13.20;95.50
6536;DHT22;34330;52.08032700;5.40923460;2023-12-28T01:35:31;13.20;95.90
6536;DHT22;34330;52.08032700;5.40923460;2023-12-28T01:37:59;13.20;95.40
6536;DHT22;34330;52.08032700;5.40923460;2023-12-28T01:40:28;13.20;95.50
6536;DHT22;34330;52.08032700;5.40923460;2023-12-28T01:42:56;13.20;95.80
6536;DHT22;34330;52.08032700;5.40923460;2023-12-28T01:45:24;13.20;95.60
6536;DHT22;34330;52.08032700;5.40923460;2023-12-28T01:47:57;13.20;95.50
6536;DHT22;34330;52.08032700;5.40923460;2023-12-28T01:50:26;13.10;95.50
6536;DHT22;34330;52.08032700;5.40923460;2023-12-28T01:52:55;13.10;95.60
6536;DHT22;34330;52.08032700;5.40923460;2023-12-28T01:55:24;13.10;95.70
6536;DHT22;34330;52.08032700;5.40923460;2023-12-28T01:57:53;13.10;95.70
6536;DHT22;34330;52.08032700;5.40923460;2023-12-28T02:00:22;13.10;95.60
6536;DHT22;34330;52.08032700;5.40923460;2023-12-28T02:02:50;13.10;95.70
6536;DHT22;34330;52.08032700;5.40923460;2023-12-28T02:05:21;13.10;95.80
6536;DHT22;34330;52.08032700;5.40923460;2023-12-28T02:07:49;13.00;95.80
6536;DHT22;34330;52.08032700;5.40923460;2023-12-28T02:10:17;13.00;95.80
6536;DHT22;34330;52.08032700;5.40923460;2023-12-28T02:12:45;13.00;95.80
6536;DHT22;34330;52.08032700;5.40923460;2023-12-28T02:15:14;13.00;95.80
6536;DHT22;34330;52.08032700;5.40923460;2023-12-28T02:17:47;13.00;95.80
6536;DHT22;34330;52.08032700;5.40923460;2023-12-28T02:20:15;13.00;95.90
6536;DHT22;34330;52.08032700;5.40923460;2023-12-28T02:22:45;13.00;95.90
6536;DHT22;34330;52.08032700;5.40923460;2023-12-28T02:25:18;13.00;95.90
6536;DHT22;34330;52.08032700;5.40923460;2023-12-28T02:27:47;13.00;95.90
6536;DHT22;34330;52.08032700;5.40923460;2023-12-28T02:30:16;13.00;95.90
6536;DHT22;34330;52.08032700;5.40923460;2023-12-28T02:32:54;13.00;95.90
6536;DHT22;34330;52.08032700;5.40923460;2023-12-28T02:35:31;13.00;95.90
6536;DHT22;34330;52.08032700;5.40923460;2023-12-28T02:38:05;13.00;95.90
6536;DHT22;34330;52.08032700;5.40923460;2023-12-28T02:40:37;13.00;96.00
6536;DHT22;34330;52.08032700;5.40923460;2023-12-28T02:43:06;13.00;96.00
6536;DHT22;34330;52.08032700;5.40923460;2023-12-28T02:45:34;13.00;96.00
6536;DHT22;34330;52.08032700;5.40923460;2023-12-28T02:48:03;13.10;96.10
6536;DHT22;34330;52.08032700;5.40923460;2023-12-28T02:50:32;13.10;96.10
6536;DHT22;34330;52.08032700;5.40923460;2023-12-28T02:53:01;13.10;96.10
6536;DHT22;34330;52.08032700;5.40923460;2023-12-28T02:55:32;13.10;96.00
6536;DHT22;34330;52.08032700;5.40923460;2023-12-28T02:58:01;13.10;95.80
6536;DHT22;34330;52.08032700;5.40923460;2023-12-28T03:00:30;13.20;95.90
6536;DHT22;34330;52.08032700;5.40923460;2023-12-28T03:02:58;13.20;95.80
6536;DHT22;34330;52.08032700;5.40923460;2023-12-28T03:05:26;13.20;95.80
6536;DHT22;34330;52.08032700;5.40923460;2023-12-28T03:07:54;13.20;95.70
6536;DHT22;34330;52.08032700;5.40923460;2023-12-28T03:10:24;13.20;95.60
6536;DHT22;34330;52.08032700;5.40923460;2023-12-28T03:12:52;13.20;95.60
6536;DHT22;34330;52.08032700;5.40923460;2023-12-28T03:15:21;13.20;95.60
6536;DHT22;34330;52.08032700;5.40923460;2023-12-28T03:17:50;13.20;95.60
6536;DHT22;34330;52.08032700;5.40923460;2023-12-28T03:20:18;13.20;95.60
6536;DHT22;34330;52.08032700;5.40923460;2023-12-28T03:22:46;13.20;95.60
6536;DHT22;34330;52.08032700;5.40923460;2023-12-28T03:25:14;13.20;95.60
6536;DHT22;34330;52.08032700;5.40923460;2023-12-28T03:27:42;13.20;95.60
6536;DHT22;34330;52.08032700;5.40923460;2023-12-28T03:30:11;13.30;95.60
6536;DHT22;34330;52.08032700;5.40923460;2023-12-28T03:32:40;13.30;95.60
6536;DHT22;34330;52.08032700;5.40923460;2023-12-28T03:35:09;13.30;95.60
6536;DHT22;34330;52.08032700;5.40923460;2023-12-28T03:37:36;13.30;95.50
6536;DHT22;34330;52.08032700;5.40923460;2023-12-28T03:40:06;13.30;95.50
6536;DHT22;34330;52.08032700;5.40923460;2023-12-28T03:42:34;13.30;95.50
6536;DHT22;34330;52.08032700;5.40923460;2023-12-28T03:45:04;13.40;95.50
6536;DHT22;34330;52.08032700;5.40923460;2023-12-28T03:47:32;13.40;95.50
6536;DHT22;34330;52.08032700;5.40923460;2023-12-28T03:50:01;13.40;95.50
6536;DHT22;34330;52.08032700;5.40923460;2023-12-28T03:52:30;13.40;95.40
6536;DHT22;34330;52.08032700;5.40923460;2023-12-28T03:54:58;13.40;95.40
6536;DHT22;34330;52.08032700;5.40923460;2023-12-28T03:57:26;13.40;95.30
6536;DHT22;34330;52.08032700;5.40923460;2023-12-28T03:59:56;13.40;95.30
6536;DHT22;34330;52.08032700;5.40923460;2023-12-28T04:02:24;13.40;95.20
6536;DHT22;34330;52.08032700;5.40923460;2023-12-28T04:04:54;13.40;95.20
6536;DHT22;34330;52.08032700;5.40923460;2023-12-28T04:07:27;13.40;95.20
6536;DHT22;34330;52.08032700;5.40923460;2023-12-28T04:09:55;13.40;95.10
6536;DHT22;34330;52.08032700;5.40923460;2023-12-28T04:12:25;13.40;95.10
6536;DHT22;34330;52.08032700;5.40923460;2023-12-28T04:14:57;13.40;95.10
6536;DHT22;34330;52.08032700;5.40923460;2023-12-28T04:17:25;13.40;95.00
6536;DHT22;34330;52.08032700;5.40923460;2023-12-28T04:19:53;13.40;95.00
6536;DHT22;34330;52.08032700;5.40923460;2023-12-28T04:22:21;13.40;95.00
6536;DHT22;34330;52.08032700;5.40923460;2023-12-28T04:24:51;13.40;95.00
6536;DHT22;34330;52.08032700;5.40923460;2023-12-28T04:27:19;13.40;94.90
6536;DHT22;34330;52.08032700;5.40923460;2023-12-28T04:29:47;13.40;95.00
6536;DHT22;34330;52.08032700;5.40923460;2023-12-28T04:32:15;13.40;95.00
6536;DHT22;34330;52.08032700;5.40923460;2023-12-28T04:34:43;13.40;94.90
6536;DHT22;34330;52.08032700;5.40923460;2023-12-28T04:37:11;13.40;94.90
6536;DHT22;34330;52.08032700;5.40923460;2023-12-28T04:39:39;13.30;94.90
6536;DHT22;34330;52.08032700;5.40923460;2023-12-28T04:42:08;13.40;94.90
6536;DHT22;34330;52.08032700;5.40923460;2023-12-28T04:44:37;13.30;94.90
6536;DHT22;34330;52.08032700;5.40923460;2023-12-28T04:47:06;13.40;94.90
6536;DHT22;34330;52.08032700;5.40923460;2023-12-28T04:49:34;13.40;95.00
6536;DHT22;34330;52.08032700;5.40923460;2023-12-28T04:52:02;13.40;95.00
6536;DHT22;34330;52.08032700;5.40923460;2023-12-28T04:54:31;13.40;95.00
6536;DHT22;34330;52.08032700;5.40923460;2023-12-28T04:57:00;13.40;94.90
6536;DHT22;34330;52.08032700;5.40923460;2023-12-28T04:59:32;13.40;94.90
6536;DHT22;34330;52.08032700;5.40923460;2023-12-28T05:01:59;13.40;94.80
6536;DHT22;34330;52.08032700;5.40923460;2023-12-28T05:04:28;13.40;94.80
6536;DHT22;34330;52.08032700;5.40923460;2023-12-28T05:06:56;13.40;94.80
6536;DHT22;34330;52.08032700;5.40923460;2023-12-28T05:09:24;13.40;94.70
6536;DHT22;34330;52.08032700;5.40923460;2023-12-28T05:11:52;13.40;94.70
6536;DHT22;34330;52.08032700;5.40923460;2023-12-28T05:14:20;13.40;94.60
6536;DHT22;34330;52.08032700;5.40923460;2023-12-28T05:16:50;13.50;94.60
6536;DHT22;34330;52.08032700;5.40923460;2023-12-28T05:19:18;13.50;94.60
6536;DHT22;34330;52.08032700;5.40923460;2023-12-28T05:21:46;13.50;94.50
6536;DHT22;34330;52.08032700;5.40923460;2023-12-28T05:24:14;13.50;94.50
6536;DHT22;34330;52.08032700;5.40923460;2023-12-28T05:26:42;13.50;94.40
6536;DHT22;34330;52.08032700;5.40923460;2023-12-28T05:29:10;13.50;94.40
6536;DHT22;34330;52.08032700;5.40923460;2023-12-28T05:31:38;13.50;94.20
6536;DHT22;34330;52.08032700;5.40923460;2023-12-28T05:34:07;13.50;94.30
6536;DHT22;34330;52.08032700;5.40923460;2023-12-28T05:36:35;13.60;94.20
6536;DHT22;34330;52.08032700;5.40923460;2023-12-28T05:39:04;13.60;94.20
6536;DHT22;34330;52.08032700;5.40923460;2023-12-28T05:41:32;13.60;94.20
6536;DHT22;34330;52.08032700;5.40923460;2023-12-28T05:44:00;13.60;94.10
6536;DHT22;34330;52.08032700;5.40923460;2023-12-28T05:46:28;13.60;94.00
6536;DHT22;34330;52.08032700;5.40923460;2023-12-28T05:48:56;13.60;93.90
6536;DHT22;34330;52.08032700;5.40923460;2023-12-28T05:51:25;13.70;93.90
6536;DHT22;34330;52.08032700;5.40923460;2023-12-28T05:53:53;13.70;93.90
6536;DHT22;34330;52.08032700;5.40923460;2023-12-28T05:56:21;13.70;93.90
6536;DHT22;34330;52.08032700;5.40923460;2023-12-28T05:58:50;13.70;93.90
6536;DHT22;34330;52.08032700;5.40923460;2023-12-28T06:01:17;13.70;93.80
6536;DHT22;34330;52.08032700;5.40923460;2023-12-28T06:03:45;13.70;93.70
6536;DHT22;34330;52.08032700;5.40923460;2023-12-28T06:06:16;13.80;93.70
6536;DHT22;34330;52.08032700;5.40923460;2023-12-28T06:08:46;13.80;93.80
6536;DHT22;34330;52.08032700;5.40923460;2023-12-28T06:11:14;13.80;93.60
6536;DHT22;34330;52.08032700;5.40923460;2023-12-28T06:13:42;13.80;93.70
6536;DHT22;34330;52.08032700;5.40923460;2023-12-28T06:16:10;13.80;93.60
6536;DHT22;34330;52.08032700;5.40923460;2023-12-28T06:18:38;13.80;93.60
6536;DHT22;34330;52.08032700;5.40923460;2023-12-28T06:21:08;13.80;93.60
6536;DHT22;34330;52.08032700;5.40923460;2023-12-28T06:23:36;13.80;93.40
6536;DHT22;34330;52.08032700;5.40923460;2023-12-28T06:26:06;13.80;93.40
6536;DHT22;34330;52.08032700;5.40923460;2023-12-28T06:28:34;13.80;93.50
6536;DHT22;34330;52.08032700;5.40923460;2023-12-28T06:31:02;13.80;93.80
6536;DHT22;34330;52.08032700;5.40923460;2023-12-28T06:33:31;13.90;93.50
6536;DHT22;34330;52.08032700;5.40923460;2023-12-28T06:36:05;13.90;93.40
6536;DHT22;34330;52.08032700;5.40923460;2023-12-28T06:38:33;13.90;93.30
6536;DHT22;34330;52.08032700;5.40923460;2023-12-28T06:41:00;13.90;93.40
6536;DHT22;34330;52.08032700;5.40923460;2023-12-28T06:43:30;13.90;93.30
6536;DHT22;34330;52.08032700;5.40923460;2023-12-28T06:45:58;13.90;93.20
6536;DHT22;34330;52.08032700;5.40923460;2023-12-28T06:48:26;13.90;93.30
6536;DHT22;34330;52.08032700;5.40923460;2023-12-28T06:50:55;13.90;93.30
6536;DHT22;34330;52.08032700;5.40923460;2023-12-28T06:53:23;13.90;93.20
6536;DHT22;34330;52.08032700;5.40923460;2023-12-28T06:55:51;14.00;93.10
6536;DHT22;34330;52.08032700;5.40923460;2023-12-28T06:58:19;13.90;93.10
6536;DHT22;34330;52.08032700;5.40923460;2023-12-28T07:00:49;13.90;93.10
6536;DHT22;34330;52.08032700;5.40923460;2023-12-28T07:03:17;13.90;92.90
6536;DHT22;34330;52.08032700;5.40923460;2023-12-28T07:05:45;13.90;93.00
6536;DHT22;34330;52.08032700;5.40923460;2023-12-28T07:08:14;14.00;93.10
6536;DHT22;34330;52.08032700;5.40923460;2023-12-28T07:10:42;13.90;92.90
6536;DHT22;34330;52.08032700;5.40923460;2023-12-28T07:13:09;13.90;93.20
6536;DHT22;34330;52.08032700;5.40923460;2023-12-28T07:15:37;13.90;92.90
6536;DHT22;34330;52.08032700;5.40923460;2023-12-28T07:18:07;14.00;92.80
6536;DHT22;34330;52.08032700;5.40923460;2023-12-28T07:20:35;13.90;92.80
6536;DHT22;34330;52.08032700;5.40923460;2023-12-28T07:23:03;13.90;92.80
6536;DHT22;34330;52.08032700;5.40923460;2023-12-28T07:25:31;13.90;92.70
6536;DHT22;34330;52.08032700;5.40923460;2023-12-28T07:28:00;13.90;92.70
6536;DHT22;34330;52.08032700;5.40923460;2023-12-28T07:30:28;13.90;92.80
6536;DHT22;34330;52.08032700;5.40923460;2023-12-28T07:32:56;13.80;92.70
6536;DHT22;34330;52.08032700;5.40923460;2023-12-28T07:35:26;13.90;92.70
6536;DHT22;34330;52.08032700;5.40923460;2023-12-28T07:37:54;13.90;92.70
6536;DHT22;34330;52.08032700;5.40923460;2023-12-28T07:40:22;13.80;92.70
6536;DHT22;34330;52.08032700;5.40923460;2023-12-28T07:42:52;13.80;92.70
6536;DHT22;34330;52.08032700;5.40923460;2023-12-28T07:45:20;15.80;93.50
6536;DHT22;34330;52.08032700;5.40923460;2023-12-28T07:47:51;13.80;92.80
6536;DHT22;34330;52.08032700;5.40923460;2023-12-28T07:50:19;14.10;93.00
6536;DHT22;34330;52.08032700;5.40923460;2023-12-28T07:52:49;13.80;92.80
6536;DHT22;34330;52.08032700;5.40923460;2023-12-28T07:55:17;13.80;92.80
6536;DHT22;34330;52.08032700;5.40923460;2023-12-28T07:57:46;13.70;92.80
6536;DHT22;34330;52.08032700;5.40923460;2023-12-28T08:00:14;13.80;92.90
6536;DHT22;34330;52.08032700;5.40923460;2023-12-28T08:02:42;13.80;92.90
6536;DHT22;34330;52.08032700;5.40923460;2023-12-28T08:05:11;13.70;92.80
6536;DHT22;34330;52.08032700;5.40923460;2023-12-28T08:07:39;13.70;92.90
6536;DHT22;34330;52.08032700;5.40923460;2023-12-28T08:10:09;13.80;92.90
6536;DHT22;34330;52.08032700;5.40923460;2023-12-28T08:12:37;13.80;92.90
6536;DHT22;34330;52.08032700;5.40923460;2023-12-28T08:15:06;13.80;92.90
6536;DHT22;34330;52.08032700;5.40923460;2023-12-28T08:17:34;13.80;93.00
6536;DHT22;34330;52.08032700;5.40923460;2023-12-28T08:20:03;13.80;92.90
6536;DHT22;34330;52.08032700;5.40923460;2023-12-28T08:22:31;13.80;93.00
6536;DHT22;34330;52.08032700;5.40923460;2023-12-28T08:25:00;13.80;93.00
6536;DHT22;34330;52.08032700;5.40923460;2023-12-28T08:27:32;13.80;92.90
6536;DHT22;34330;52.08032700;5.40923460;2023-12-28T08:29:59;13.80;92.80
6536;DHT22;34330;52.08032700;5.40923460;2023-12-28T08:32:27;13.80;92.90
6536;DHT22;34330;52.08032700;5.40923460;2023-12-28T08:34:56;13.80;93.00
6536;DHT22;34330;52.08032700;5.40923460;2023-12-28T08:37:24;13.80;93.00
6536;DHT22;34330;52.08032700;5.40923460;2023-12-28T08:39:52;13.80;92.70
6536;DHT22;34330;52.08032700;5.40923460;2023-12-28T08:42:22;13.90;92.70
6536;DHT22;34330;52.08032700;5.40923460;2023-12-28T08:44:52;13.90;92.80
6536;DHT22;34330;52.08032700;5.40923460;2023-12-28T08:47:20;13.90;92.80
6536;DHT22;34330;52.08032700;5.40923460;2023-12-28T08:49:49;13.90;92.90
6536;DHT22;34330;52.08032700;5.40923460;2023-12-28T08:52:18;13.90;92.90
6536;DHT22;34330;52.08032700;5.40923460;2023-12-28T08:54:46;13.50;92.50
6536;DHT22;34330;52.08032700;5.40923460;2023-12-28T08:57:14;13.90;92.70
6536;DHT22;34330;52.08032700;5.40923460;2023-12-28T08:59:52;13.90;92.70
6536;DHT22;34330;52.08032700;5.40923460;2023-12-28T09:02:20;13.90;92.70
6536;DHT22;34330;52.08032700;5.40923460;2023-12-28T09:04:48;13.90;92.60
6536;DHT22;34330;52.08032700;5.40923460;2023-12-28T09:07:16;14.00;93.10
6536;DHT22;34330;52.08032700;5.40923460;2023-12-28T09:09:46;14.00;92.70
6536;DHT22;34330;52.08032700;5.40923460;2023-12-28T09:12:14;14.00;92.60
6536;DHT22;34330;52.08032700;5.40923460;2023-12-28T09:14:42;14.00;92.60
6536;DHT22;34330;52.08032700;5.40923460;2023-12-28T09:17:12;14.00;92.60
6536;DHT22;34330;52.08032700;5.40923460;2023-12-28T09:19:41;14.00;92.40
6536;DHT22;34330;52.08032700;5.40923460;2023-12-28T09:22:09;14.00;92.50
6536;DHT22;34330;52.08032700;5.40923460;2023-12-28T09:24:37;14.00;92.50
6536;DHT22;34330;52.08032700;5.40923460;2023-12-28T09:27:05;14.10;92.40
6536;DHT22;34330;52.08032700;5.40923460;2023-12-28T09:29:33;14.10;92.50
6536;DHT22;34330;52.08032700;5.40923460;2023-12-28T09:32:01;14.10;92.40
6536;DHT22;34330;52.08032700;5.40923460;2023-12-28T09:34:31;14.10;92.40
6536;DHT22;34330;52.08032700;5.40923460;2023-12-28T09:37:01;14.10;92.30
6536;DHT22;34330;52.08032700;5.40923460;2023-12-28T09:39:31;14.20;92.40
6536;DHT22;34330;52.08032700;5.40923460;2023-12-28T09:42:00;14.10;92.20
6536;DHT22;34330;52.08032700;5.40923460;2023-12-28T09:44:29;14.20;92.40
6536;DHT22;34330;52.08032700;5.40923460;2023-12-28T09:46:58;14.20;92.40
6536;DHT22;34330;52.08032700;5.40923460;2023-12-28T09:49:33;14.20;92.20
6536;DHT22;34330;52.08032700;5.40923460;2023-12-28T09:52:03;14.20;92.10
6536;DHT22;34330;52.08032700;5.40923460;2023-12-28T09:54:33;14.30;92.20
6536;DHT22;34330;52.08032700;5.40923460;2023-12-28T09:57:03;14.30;92.00
6536;DHT22;34330;52.08032700;5.40923460;2023-12-28T09:59:32;14.30;91.90
6536;DHT22;34330;52.08032700;5.40923460;2023-12-28T10:02:01;14.30;91.80
6536;DHT22;34330;52.08032700;5.40923460;2023-12-28T10:04:30;14.40;91.80
6536;DHT22;34330;52.08032700;5.40923460;2023-12-28T10:06:59;14.40;91.70
6536;DHT22;34330;52.08032700;5.40923460;2023-12-28T10:09:27;14.40;91.50
6536;DHT22;34330;52.08032700;5.40923460;2023-12-28T10:11:57;14.40;91.60
6536;DHT22;34330;52.08032700;5.40923460;2023-12-28T10:14:26;14.60;91.80
6536;DHT22;34330;52.08032700;5.40923460;2023-12-28T10:16:54;14.50;91.60
6536;DHT22;34330;52.08032700;5.40923460;2023-12-28T10:19:22;14.50;91.40
6536;DHT22;34330;52.08032700;5.40923460;2023-12-28T10:21:51;14.50;91.50
6536;DHT22;34330;52.08032700;5.40923460;2023-12-28T10:24:20;14.50;91.40
6536;DHT22;34330;52.08032700;5.40923460;2023-12-28T10:26:49;14.50;91.40
6536;DHT22;34330;52.08032700;5.40923460;2023-12-28T10:29:17;14.50;91.20
6536;DHT22;34330;52.08032700;5.40923460;2023-12-28T10:31:45;14.50;91.40
6536;DHT22;34330;52.08032700;5.40923460;2023-12-28T10:34:16;14.50;91.20
6536;DHT22;34330;52.08032700;5.40923460;2023-12-28T10:36:47;14.50;91.50
6536;DHT22;34330;52.08032700;5.40923460;2023-12-28T10:39:20;14.50;91.40
6536;DHT22;34330;52.08032700;5.40923460;2023-12-28T10:41:51;14.50;91.30
6536;DHT22;34330;52.08032700;5.40923460;2023-12-28T10:44:23;14.50;91.30
6536;DHT22;34330;52.08032700;5.40923460;2023-12-28T10:46:57;14.50;91.30
6536;DHT22;34330;52.08032700;5.40923460;2023-12-28T10:49:30;14.50;91.30
6536;DHT22;34330;52.08032700;5.40923460;2023-12-28T10:52:06;14.50;91.20
6536;DHT22;34330;52.08032700;5.40923460;2023-12-28T10:54:44;14.50;91.20
6536;DHT22;34330;52.08032700;5.40923460;2023-12-28T10:57:21;14.50;91.00
6536;DHT22;34330;52.08032700;5.40923460;2023-12-28T11:00:00;14.60;91.00
6536;DHT22;34330;52.08032700;5.40923460;2023-12-28T11:02:38;14.60;91.10
6536;DHT22;34330;52.08032700;5.40923460;2023-12-28T11:05:07;14.60;91.00
6536;DHT22;34330;52.08032700;5.40923460;2023-12-28T11:07:36;16.10;91.80
6536;DHT22;34330;52.08032700;5.40923460;2023-12-28T11:10:07;14.60;91.10
6536;DHT22;34330;52.08032700;5.40923460;2023-12-28T11:12:37;14.60;91.00
6536;DHT22;34330;52.08032700;5.40923460;2023-12-28T11:15:06;14.60;90.90
6536;DHT22;34330;52.08032700;5.40923460;2023-12-28T11:17:37;14.60;91.00
6536;DHT22;34330;52.08032700;5.40923460;2023-12-28T11:20:07;14.60;90.80
6536;DHT22;34330;52.08032700;5.40923460;2023-12-28T11:22:38;14.60;90.70
6536;DHT22;34330;52.08032700;5.40923460;2023-12-28T11:25:14;14.60;90.60
6536;DHT22;34330;52.08032700;5.40923460;2023-12-28T11:27:42;14.60;90.60
6536;DHT22;34330;52.08032700;5.40923460;2023-12-28T11:30:11;14.60;90.80
6536;DHT22;34330;52.08032700;5.40923460;2023-12-28T11:32:42;14.60;90.70
6536;DHT22;34330;52.08032700;5.40923460;2023-12-28T11:35:11;14.60;90.70
6536;DHT22;34330;52.08032700;5.40923460;2023-12-28T11:37:42;14.60;90.80
6536;DHT22;34330;52.08032700;5.40923460;2023-12-28T11:40:17;14.60;90.80
6536;DHT22;34330;52.08032700;5.40923460;2023-12-28T11:42:53;14.60;90.50
6536;DHT22;34330;52.08032700;5.40923460;2023-12-28T11:45:23;14.70;90.60
6536;DHT22;34330;52.08032700;5.40923460;2023-12-28T11:48:01;14.70;90.70
6536;DHT22;34330;52.08032700;5.40923460;2023-12-28T11:50:31;14.70;90.50
6536;DHT22;34330;52.08032700;5.40923460;2023-12-28T11:52:59;14.70;90.60
6536;DHT22;34330;52.08032700;5.40923460;2023-12-28T11:55:30;14.70;90.70
6536;DHT22;34330;52.08032700;5.40923460;2023-12-28T11:57:59;14.70;90.60
6536;DHT22;34330;52.08032700;5.40923460;2023-12-28T12:00:27;14.70;90.50
6536;DHT22;34330;52.08032700;5.40923460;2023-12-28T12:02:55;14.70;90.50
6536;DHT22;34330;52.08032700;5.40923460;2023-12-28T12:05:23;14.70;90.50
6536;DHT22;34330;52.08032700;5.40923460;2023-12-28T12:07:52;14.70;90.50
6536;DHT22;34330;52.08032700;5.40923460;2023-12-28T12:10:20;14.70;90.50
6536;DHT22;34330;52.08032700;5.40923460;2023-12-28T12:12:51;14.70;90.50
6536;DHT22;34330;52.08032700;5.40923460;2023-12-28T12:15:20;14.70;90.40
6536;DHT22;34330;52.08032700;5.40923460;2023-12-28T12:17:48;14.70;90.30
6536;DHT22;34330;52.08032700;5.40923460;2023-12-28T12:20:19;14.80;90.60
6536;DHT22;34330;52.08032700;5.40923460;2023-12-28T12:22:48;14.80;90.40
6536;DHT22;34330;52.08032700;5.40923460;2023-12-28T12:25:16;14.80;90.30
6536;DHT22;34330;52.08032700;5.40923460;2023-12-28T12:27:46;14.80;90.40
6536;DHT22;34330;52.08032700;5.40923460;2023-12-28T12:30:16;14.80;90.10
6536;DHT22;34330;52.08032700;5.40923460;2023-12-28T12:32:44;14.80;90.20
6536;DHT22;34330;52.08032700;5.40923460;2023-12-28T12:35:15;14.80;90.20
6536;DHT22;34330;52.08032700;5.40923460;2023-12-28T12:37:47;14.80;90.00
6536;DHT22;34330;52.08032700;5.40923460;2023-12-28T12:40:18;14.80;90.10
6536;DHT22;34330;52.08032700;5.40923460;2023-12-28T12:42:53;14.80;90.10
6536;DHT22;34330;52.08032700;5.40923460;2023-12-28T12:45:24;14.80;90.00
6536;DHT22;34330;52.08032700;5.40923460;2023-12-28T12:47:52;14.80;89.90
6536;DHT22;34330;52.08032700;5.40923460;2023-12-28T12:50:20;14.80;90.10
6536;DHT22;34330;52.08032700;5.40923460;2023-12-28T12:52:48;14.80;90.10
6536;DHT22;34330;52.08032700;5.40923460;2023-12-28T12:55:16;15.00;90.10
6536;DHT22;34330;52.08032700;5.40923460;2023-12-28T12:57:45;14.80;89.80
6536;DHT22;34330;52.08032700;5.40923460;2023-12-28T13:00:14;15.10;90.00
6536;DHT22;34330;52.08032700;5.40923460;2023-12-28T13:02:44;14.80;89.80
6536;DHT22;34330;52.08032700;5.40923460;2023-12-28T13:05:12;14.80;89.00
6536;DHT22;34330;52.08032700;5.40923460;2023-12-28T13:07:41;14.80;89.40
6536;DHT22;34330;52.08032700;5.40923460;2023-12-28T13:10:10;14.80;89.80
6536;DHT22;34330;52.08032700;5.40923460;2023-12-28T13:12:38;14.80;89.30
6536;DHT22;34330;52.08032700;5.40923460;2023-12-28T13:15:07;14.80;89.40
6536;DHT22;34330;52.08032700;5.40923460;2023-12-28T13:17:36;14.80;90.00
6536;DHT22;34330;52.08032700;5.40923460;2023-12-28T13:20:07;14.80;89.20
6536;DHT22;34330;52.08032700;5.40923460;2023-12-28T13:22:37;14.70;89.00
6536;DHT22;34330;52.08032700;5.40923460;2023-12-28T13:25:08;14.80;88.90
6536;DHT22;34330;52.08032700;5.40923460;2023-12-28T13:27:38;14.70;88.60
6536;DHT22;34330;52.08032700;5.40923460;2023-12-28T13:30:07;14.70;88.80
6536;DHT22;34330;52.08032700;5.40923460;2023-12-28T13:32:35;14.70;88.90
6536;DHT22;34330;52.08032700;5.40923460;2023-12-28T13:35:05;14.70;89.00
6536;DHT22;34330;52.08032700;5.40923460;2023-12-28T13:37:35;14.70;89.30
6536;DHT22;34330;52.08032700;5.40923460;2023-12-28T13:40:06;14.70;89.10
6536;DHT22;34330;52.08032700;5.40923460;2023-12-28T13:42:34;14.70;89.30
6536;DHT22;34330;52.08032700;5.40923460;2023-12-28T13:45:03;14.70;89.40